createdAt,value
2018-09-27T00:05:11.627Z,1018.4
2018-09-27T00:15:13.830Z,1018.3
2018-09-27T00:25:16.291Z,1018.4
2018-09-27T00:35:18.104Z,1018.3
2018-09-27T00:45:19.846Z,1018.3
2018-09-27T00:55:22.503Z,1018.2
2018-09-27T01:05:24.210Z,1018.1
2018-09-27T01:15:25.786Z,1018
2018-09-27T01:25:27.649Z,1018
2018-09-27T01:35:29.666Z,1017.9
2018-09-27T01:45:31.735Z,1017.9
2018-09-27T01:55:33.961Z,1017.8
2018-09-27T02:05:36.073Z,1017.7
2018-09-27T02:15:37.885Z,1017.7
2018-09-27T02:25:39.728Z,1017.6
2018-09-27T02:35:41.296Z,1017.5
2018-09-27T02:45:42.873Z,1017.4
2018-09-27T02:55:45.533Z,1017.3
2018-09-27T03:05:47.596Z,1017.4
2018-09-27T03:15:49.190Z,1017.4
2018-09-27T03:25:50.997Z,1017.2
2018-09-27T03:35:52.767Z,1017.3
2018-09-27T03:45:54.430Z,1017.2
2018-09-27T03:55:56.298Z,1017.2
2018-09-27T04:05:58.058Z,1017.1
2018-09-27T04:16:00.172Z,1017
2018-09-27T04:26:02.047Z,1017
2018-09-27T04:36:04.044Z,1017
2018-09-27T04:46:05.429Z,1017
2018-09-27T04:56:06.929Z,1017
2018-09-27T05:06:08.623Z,1017
2018-09-27T05:16:10.099Z,1017
2018-09-27T05:26:12.723Z,1016.8
2018-09-27T05:36:14.824Z,1016.8
2018-09-27T05:46:16.875Z,1016.8
2018-09-27T05:56:18.568Z,1016.8
2018-09-27T06:06:20.351Z,1016.9
2018-09-27T06:16:21.770Z,1016.8
2018-09-27T06:26:23.655Z,1016.8
2018-09-27T06:36:26.159Z,1016.9
2018-09-27T06:46:28.245Z,1017
2018-09-27T06:56:31.167Z,1017
2018-09-27T07:06:33.023Z,1017
2018-09-27T07:16:34.632Z,1017
2018-09-27T07:26:36.446Z,1017.1
2018-09-27T07:36:38.307Z,1017
2018-09-27T07:46:39.917Z,1017
2018-09-27T07:56:41.905Z,1016.8
2018-09-27T08:16:46.711Z,1016.7
2018-09-27T08:26:48.665Z,1016.8
2018-09-27T08:36:50.534Z,1016.6
2018-09-27T08:46:52.693Z,1016.5
2018-09-27T08:56:54.339Z,1016.4
2018-09-27T09:06:56.050Z,1016.3
2018-09-27T09:16:57.417Z,1016.1
2018-09-27T09:27:00.096Z,1016.1
2018-09-27T09:37:01.692Z,1016
2018-09-27T09:47:03.556Z,1015.9
2018-09-27T09:57:05.289Z,1015.7
2018-09-27T10:07:06.427Z,1015.6
2018-09-27T10:17:07.818Z,1015.4
2018-09-27T10:27:09.563Z,1015.2
2018-09-27T10:37:11.592Z,1015
2018-09-27T10:47:13.780Z,1015
2018-09-27T10:57:15.752Z,1015
2018-09-27T11:07:17.834Z,1014.7
2018-09-27T11:17:19.741Z,1014.5
2018-09-27T11:27:21.873Z,1014.4
2018-09-27T11:37:24.116Z,1014.2
2018-09-27T11:47:26.668Z,1014
2018-09-27T11:57:29.048Z,1013.7
2018-09-27T12:07:31.167Z,1013.5
2018-09-27T12:17:32.989Z,1013.4
2018-09-27T12:27:34.726Z,1013.2
2018-09-27T12:37:36.839Z,1013.1
2018-09-27T12:47:38.764Z,1012.9
2018-09-27T12:57:41.129Z,1012.9
2018-09-27T13:07:42.902Z,1012.7
2018-09-27T13:17:44.913Z,1012.5
2018-09-27T13:27:46.723Z,1012.4
2018-09-27T13:37:48.864Z,1012.2
2018-09-27T13:47:50.632Z,1012.1
2018-09-27T13:57:52.820Z,1011.9
2018-09-27T14:07:54.563Z,1011.8
2018-09-27T14:17:56.785Z,1011.6
2018-09-27T14:27:58.982Z,1011.5
2018-09-27T14:38:00.706Z,1011.3
2018-09-27T14:48:02.543Z,1011.3
2018-09-27T14:58:04.554Z,1011.1
2018-09-27T15:08:06.703Z,1011
2018-09-27T15:18:08.725Z,1010.9
2018-09-27T15:28:10.444Z,1010.8
2018-09-27T15:38:12.265Z,1010.7
2018-09-27T15:48:13.936Z,1010.6
2018-09-27T15:58:15.543Z,1010.5
2018-09-27T16:08:17.114Z,1010.3
2018-09-27T16:18:19.070Z,1010.2
2018-09-27T16:28:20.968Z,1010.2
2018-09-27T16:38:22.959Z,1010.1
2018-09-27T16:48:25.467Z,1010.1
2018-09-27T16:58:27.217Z,1010.1
2018-09-27T17:08:29.718Z,1010
2018-09-27T17:18:31.360Z,1009.9
2018-09-27T17:28:33.276Z,1009.8
2018-09-27T17:38:35.001Z,1009.7
2018-09-27T17:48:36.766Z,1009.7
2018-09-27T17:58:38.886Z,1009.7
2018-09-27T18:08:40.619Z,1009.7
2018-09-27T18:18:42.638Z,1009.6
2018-09-27T18:28:45.494Z,1009.6
2018-09-27T18:38:48.462Z,1009.6
2018-09-27T18:48:49.949Z,1009.6
2018-09-27T18:58:51.703Z,1009.7
2018-09-27T19:08:53.738Z,1009.7
2018-09-27T19:18:55.725Z,1009.6
2018-09-27T19:28:57.620Z,1009.6
2018-09-27T19:38:59.300Z,1009.7
2018-09-27T19:49:01.323Z,1009.6
2018-09-27T19:59:03.061Z,1009.5
2018-09-27T20:09:04.663Z,1009.4
2018-09-27T20:19:06.242Z,1009.3
2018-09-27T20:29:07.724Z,1009.3
2018-09-27T20:39:09.348Z,1009.4
2018-09-27T20:49:11.023Z,1009.4
2018-09-27T20:59:12.928Z,1009.3
2018-09-27T21:09:15.184Z,1009.3
2018-09-27T21:19:17.361Z,1009.2
2018-09-27T21:29:19.129Z,1009
2018-09-27T21:39:21.540Z,1009
2018-09-27T21:49:23.477Z,1008.8
2018-09-27T21:59:25.103Z,1008.9
2018-09-27T22:09:27.114Z,1008.9
2018-09-27T22:19:29.124Z,1008.7
2018-09-27T22:29:30.835Z,1008.7
2018-09-27T22:39:32.928Z,1008.7
2018-09-27T22:49:34.900Z,1008.8
2018-09-27T22:59:36.885Z,1008.8
2018-09-27T23:09:39.108Z,1008.8
2018-09-27T23:19:40.791Z,1008.7
2018-09-27T23:29:42.572Z,1008.6
2018-09-27T23:39:44.136Z,1008.7
2018-09-27T23:49:45.971Z,1008.7
2018-09-27T23:59:48.610Z,1008.6
